Aérodrome :
LOGIN :

S'inscrire | Disclaimer

   EN    FR    IT 

 










Légende :    VFR   VFR Marginal   IFR   IFR Intensif   IFR Très Intensif
Visi : 
Plafond : 
>= 8 km
>= 3000ft
5 à 8 km
1000 à 3000 ft
1500m à 5 km
500 à 1000 ft
800 à 1500m
200 à 500 ft
< 800m
< 200 ft
Symboles :   Orages  Brouillard  Fortes neiges  Fortes précipitations  Vent > 20 kt
SIGMETs :   Divers  Orages  Givrage  Turbulence  Onde Orograph.  Cendres Volcan.






- Altitude de l'aérodrome : 231 ft
- Code IATA : WTN


EGXW - RAF Waddington

DERNIER METAR :
  • 281220Z 15024KT 8000 RA BKN008 OVC014 04/03 Q1001 TEMPO 5000 RA BKN006 RMK GRN TEMPO YLO1

METARs EXPIRÉS :
  • 281150Z 15019KT 7000 RA BKN006 OVC013 04/03 Q1002 TEMPO 4000 RA RMK YLO1 TEMPO YLO1
  • 281120Z 15016KT 9999 -RA BKN007 OVC013 03/02 Q1003 TEMPO 5000 RA BKN006 RMK GRN TEMPO YL01
  • 281050Z 15016KT 8000 -RA BKN008 OVC030 03/02 Q1004 TEMPO 5000 RA BKN006 RMK GRN TEMPO YLO1
  • 281020Z 16016KT 8000 RA SCT008 OVC025 02/01 Q1005 TEMPO 5000 RA BKN006 RMK GRN TEMPO YLO1
  • 280950Z 17016KT 9999 RA FEW020 BKN025 OVC030 02/01 Q1006 BECMG BKN008 RMK BLU BECMG GRN

TAF TAF EGXW
Valide du 28 à 12h jusqu'au 29 à 06h UTC


281055Z 2812/2906 16017G27KT 9999 -RA BKN008
TEMPO 2812/2818 4500 RA SCT005 BKN010
PROB30
TEMPO 2813/2817 3500 RA SCT004 BKN006
BECMG 2816/2818 20015G25KT NSW
PROB30
TEMPO 2819/2821 FEW010
TEMPO 2822/2906 5000 RA



MET'MAP, la Météo Aéronautique d'un coup d'oeil ! - Copyright ORBIFLY Décembre 2007 - Disclaimer

ORBIFLY MET'MAP TEAM :

Programmation & Développement : Alexandra Zaïnal
Sur une idée originale de : Baudouin d'Aumeries
Assistance à la programmation : Marc-Olivier Méhu
Soutien technique & logistique : Manuel Goepfert

Contact : metmap@orbifly.com




SOURCES & CREDITS :

   NOAA